sensor_id;sensor_type;location;lat;lon;timestamp;temperature;humidity
11583;DHT22;34299;50.820;4.548;2023-07-29T00:01:11;18.80;99.90
11583;DHT22;34299;50.820;4.548;2023-07-29T00:03:38;18.70;99.90
11583;DHT22;34299;50.820;4.548;2023-07-29T00:06:06;18.70;99.90
11583;DHT22;34299;50.820;4.548;2023-07-29T00:08:33;18.60;99.90
11583;DHT22;34299;50.820;4.548;2023-07-29T00:11:00;18.60;99.90
11583;DHT22;34299;50.820;4.548;2023-07-29T00:13:27;18.70;99.90
11583;DHT22;34299;50.820;4.548;2023-07-29T00:15:54;18.60;99.90
11583;DHT22;34299;50.820;4.548;2023-07-29T00:18:21;18.60;99.90
11583;DHT22;34299;50.820;4.548;2023-07-29T00:20:49;18.60;99.90
11583;DHT22;34299;50.820;4.548;2023-07-29T00:23:18;18.50;99.90
11583;DHT22;34299;50.820;4.548;2023-07-29T00:25:45;18.40;99.90
11583;DHT22;34299;50.820;4.548;2023-07-29T00:28:12;18.40;99.90
11583;DHT22;34299;50.820;4.548;2023-07-29T00:30:39;18.30;99.90
11583;DHT22;34299;50.820;4.548;2023-07-29T00:33:06;18.40;99.90
11583;DHT22;34299;50.820;4.548;2023-07-29T00:35:32;18.30;99.90
11583;DHT22;34299;50.820;4.548;2023-07-29T00:37:59;18.40;99.90
11583;DHT22;34299;50.820;4.548;2023-07-29T00:40:28;18.20;99.90
11583;DHT22;34299;50.820;4.548;2023-07-29T00:42:55;18.10;99.90
11583;DHT22;34299;50.820;4.548;2023-07-29T00:45:24;18.00;99.90
11583;DHT22;34299;50.820;4.548;2023-07-29T00:47:51;17.90;99.90
11583;DHT22;34299;50.820;4.548;2023-07-29T00:50:18;17.90;99.90
11583;DHT22;34299;50.820;4.548;2023-07-29T00:52:46;17.80;99.90
11583;DHT22;34299;50.820;4.548;2023-07-29T00:55:13;17.80;99.90
11583;DHT22;34299;50.820;4.548;2023-07-29T00:57:41;17.90;99.90
11583;DHT22;34299;50.820;4.548;2023-07-29T01:00:14;17.70;99.90
11583;DHT22;34299;50.820;4.548;2023-07-29T01:02:42;17.60;99.90
11583;DHT22;34299;50.820;4.548;2023-07-29T01:05:12;17.70;99.90
11583;DHT22;34299;50.820;4.548;2023-07-29T01:07:49;17.50;99.90
11583;DHT22;34299;50.820;4.548;2023-07-29T01:10:28;17.50;99.90
11583;DHT22;34299;50.820;4.548;2023-07-29T01:13:06;17.40;99.90
11583;DHT22;34299;50.820;4.548;2023-07-29T01:15:43;17.40;99.90
11583;DHT22;34299;50.820;4.548;2023-07-29T01:18:16;17.30;99.90
11583;DHT22;34299;50.820;4.548;2023-07-29T01:20:46;17.30;99.90
11583;DHT22;34299;50.820;4.548;2023-07-29T01:23:13;17.40;99.90
11583;DHT22;34299;50.820;4.548;2023-07-29T01:25:44;17.30;99.90
11583;DHT22;34299;50.820;4.548;2023-07-29T01:28:11;17.30;99.90
11583;DHT22;34299;50.820;4.548;2023-07-29T01:30:40;17.30;99.90
11583;DHT22;34299;50.820;4.548;2023-07-29T01:33:16;17.20;99.90
11583;DHT22;34299;50.820;4.548;2023-07-29T01:35:46;17.20;99.90
11583;DHT22;34299;50.820;4.548;2023-07-29T01:38:17;17.20;99.90
11583;DHT22;34299;50.820;4.548;2023-07-29T01:40:46;17.20;99.90
11583;DHT22;34299;50.820;4.548;2023-07-29T01:43:14;17.10;99.90
11583;DHT22;34299;50.820;4.548;2023-07-29T01:45:41;17.10;99.90
11583;DHT22;34299;50.820;4.548;2023-07-29T01:48:08;17.10;99.90
11583;DHT22;34299;50.820;4.548;2023-07-29T01:50:35;17.00;99.90
11583;DHT22;34299;50.820;4.548;2023-07-29T01:53:01;17.00;99.90
11583;DHT22;34299;50.820;4.548;2023-07-29T01:55:29;17.00;99.90
11583;DHT22;34299;50.820;4.548;2023-07-29T01:57:57;17.10;99.90
11583;DHT22;34299;50.820;4.548;2023-07-29T02:00:24;17.10;99.90
11583;DHT22;34299;50.820;4.548;2023-07-29T02:02:51;17.00;99.90
11583;DHT22;34299;50.820;4.548;2023-07-29T02:05:18;17.00;99.90
11583;DHT22;34299;50.820;4.548;2023-07-29T02:07:45;16.90;99.90
11583;DHT22;34299;50.820;4.548;2023-07-29T02:10:12;16.90;99.90
11583;DHT22;34299;50.820;4.548;2023-07-29T02:12:39;16.80;99.90
11583;DHT22;34299;50.820;4.548;2023-07-29T02:15:08;16.80;99.90
11583;DHT22;34299;50.820;4.548;2023-07-29T02:17:36;16.80;99.90
11583;DHT22;34299;50.820;4.548;2023-07-29T02:20:03;16.70;99.90
11583;DHT22;34299;50.820;4.548;2023-07-29T02:22:31;16.80;99.90
11583;DHT22;34299;50.820;4.548;2023-07-29T02:24:58;16.80;99.90
11583;DHT22;34299;50.820;4.548;2023-07-29T02:27:25;16.70;99.90
11583;DHT22;34299;50.820;4.548;2023-07-29T02:29:52;16.70;99.90
11583;DHT22;34299;50.820;4.548;2023-07-29T02:32:21;16.70;99.90
11583;DHT22;34299;50.820;4.548;2023-07-29T02:34:48;16.80;99.90
11583;DHT22;34299;50.820;4.548;2023-07-29T02:37:15;16.70;99.90
11583;DHT22;34299;50.820;4.548;2023-07-29T02:39:42;16.70;99.90
11583;DHT22;34299;50.820;4.548;2023-07-29T02:42:09;16.70;99.90
11583;DHT22;34299;50.820;4.548;2023-07-29T02:44:36;16.70;99.90
11583;DHT22;34299;50.820;4.548;2023-07-29T02:47:03;16.70;99.90
11583;DHT22;34299;50.820;4.548;2023-07-29T02:49:31;16.70;99.90
11583;DHT22;34299;50.820;4.548;2023-07-29T02:51:58;16.70;99.90
11583;DHT22;34299;50.820;4.548;2023-07-29T02:54:25;16.70;99.90
11583;DHT22;34299;50.820;4.548;2023-07-29T02:56:53;16.60;99.90
11583;DHT22;34299;50.820;4.548;2023-07-29T02:59:20;16.60;99.90
11583;DHT22;34299;50.820;4.548;2023-07-29T03:01:47;16.60;99.90
11583;DHT22;34299;50.820;4.548;2023-07-29T03:04:14;16.60;99.90
11583;DHT22;34299;50.820;4.548;2023-07-29T03:06:42;16.50;99.90
11583;DHT22;34299;50.820;4.548;2023-07-29T03:09:09;16.50;99.90
11583;DHT22;34299;50.820;4.548;2023-07-29T03:11:36;16.60;99.90
11583;DHT22;34299;50.820;4.548;2023-07-29T03:14:03;16.50;99.90
11583;DHT22;34299;50.820;4.548;2023-07-29T03:16:30;16.40;99.90
11583;DHT22;34299;50.820;4.548;2023-07-29T03:18:57;16.50;99.90
11583;DHT22;34299;50.820;4.548;2023-07-29T03:21:25;16.50;99.90
11583;DHT22;34299;50.820;4.548;2023-07-29T03:23:54;16.40;99.90
11583;DHT22;34299;50.820;4.548;2023-07-29T03:26:21;16.40;99.90
11583;DHT22;34299;50.820;4.548;2023-07-29T03:28:48;16.40;99.90
11583;DHT22;34299;50.820;4.548;2023-07-29T03:31:14;16.40;99.90
11583;DHT22;34299;50.820;4.548;2023-07-29T03:33:41;16.40;99.90
11583;DHT22;34299;50.820;4.548;2023-07-29T03:36:08;16.30;99.90
11583;DHT22;34299;50.820;4.548;2023-07-29T03:38:35;16.20;99.90
11583;DHT22;34299;50.820;4.548;2023-07-29T03:41:07;16.30;99.90
11583;DHT22;34299;50.820;4.548;2023-07-29T03:43:34;16.30;99.90
11583;DHT22;34299;50.820;4.548;2023-07-29T03:46:01;16.20;99.90
11583;DHT22;34299;50.820;4.548;2023-07-29T03:48:28;16.30;99.90
11583;DHT22;34299;50.820;4.548;2023-07-29T03:50:56;16.30;99.90
11583;DHT22;34299;50.820;4.548;2023-07-29T03:53:23;16.30;99.90
11583;DHT22;34299;50.820;4.548;2023-07-29T03:55:51;16.30;99.90
11583;DHT22;34299;50.820;4.548;2023-07-29T03:58:19;16.30;99.90
11583;DHT22;34299;50.820;4.548;2023-07-29T04:00:46;16.20;99.90
11583;DHT22;34299;50.820;4.548;2023-07-29T04:03:13;16.20;99.90
11583;DHT22;34299;50.820;4.548;2023-07-29T04:05:40;16.20;99.90
11583;DHT22;34299;50.820;4.548;2023-07-29T04:08:07;16.20;99.90
11583;DHT22;34299;50.820;4.548;2023-07-29T04:10:34;16.20;99.90
11583;DHT22;34299;50.820;4.548;2023-07-29T04:13:01;16.20;99.90
11583;DHT22;34299;50.820;4.548;2023-07-29T04:15:29;16.20;99.90
11583;DHT22;34299;50.820;4.548;2023-07-29T04:17:56;16.20;99.90
11583;DHT22;34299;50.820;4.548;2023-07-29T04:20:23;16.20;99.90
11583;DHT22;34299;50.820;4.548;2023-07-29T04:22:50;16.20;99.90
11583;DHT22;34299;50.820;4.548;2023-07-29T04:25:17;16.20;99.90
11583;DHT22;34299;50.820;4.548;2023-07-29T04:27:44;16.20;99.90
11583;DHT22;34299;50.820;4.548;2023-07-29T04:30:11;16.10;99.90
11583;DHT22;34299;50.820;4.548;2023-07-29T04:32:39;16.20;99.90
11583;DHT22;34299;50.820;4.548;2023-07-29T04:35:08;16.30;99.90
11583;DHT22;34299;50.820;4.548;2023-07-29T04:37:35;16.20;99.90
11583;DHT22;34299;50.820;4.548;2023-07-29T04:40:02;16.40;99.90
11583;DHT22;34299;50.820;4.548;2023-07-29T04:42:29;16.30;99.90
11583;DHT22;34299;50.820;4.548;2023-07-29T04:44:56;16.40;99.90
11583;DHT22;34299;50.820;4.548;2023-07-29T04:47:23;16.40;99.90
11583;DHT22;34299;50.820;4.548;2023-07-29T04:49:51;16.50;99.90
11583;DHT22;34299;50.820;4.548;2023-07-29T04:52:18;16.40;99.90
11583;DHT22;34299;50.820;4.548;2023-07-29T04:54:45;16.30;99.90
11583;DHT22;34299;50.820;4.548;2023-07-29T04:57:12;16.30;99.90
11583;DHT22;34299;50.820;4.548;2023-07-29T04:59:39;16.40;99.90
11583;DHT22;34299;50.820;4.548;2023-07-29T05:02:06;16.40;99.90
11583;DHT22;34299;50.820;4.548;2023-07-29T05:04:33;16.30;99.90
11583;DHT22;34299;50.820;4.548;2023-07-29T05:07:01;16.30;99.90
11583;DHT22;34299;50.820;4.548;2023-07-29T05:09:28;16.30;99.90
11583;DHT22;34299;50.820;4.548;2023-07-29T05:11:55;16.30;99.90
11583;DHT22;34299;50.820;4.548;2023-07-29T05:14:22;16.30;99.90
11583;DHT22;34299;50.820;4.548;2023-07-29T05:16:49;16.20;99.90
11583;DHT22;34299;50.820;4.548;2023-07-29T05:19:16;16.20;99.90
11583;DHT22;34299;50.820;4.548;2023-07-29T05:21:43;16.30;99.90
11583;DHT22;34299;50.820;4.548;2023-07-29T05:24:11;16.20;99.90
11583;DHT22;34299;50.820;4.548;2023-07-29T05:26:38;16.30;99.90
11583;DHT22;34299;50.820;4.548;2023-07-29T05:29:05;16.30;99.90
11583;DHT22;34299;50.820;4.548;2023-07-29T05:31:32;16.30;99.90
11583;DHT22;34299;50.820;4.548;2023-07-29T05:33:59;16.40;99.90
11583;DHT22;34299;50.820;4.548;2023-07-29T05:36:26;16.40;99.90
11583;DHT22;34299;50.820;4.548;2023-07-29T05:38:53;16.40;99.90
11583;DHT22;34299;50.820;4.548;2023-07-29T05:41:21;16.50;99.90
11583;DHT22;34299;50.820;4.548;2023-07-29T05:43:48;16.60;99.90
11583;DHT22;34299;50.820;4.548;2023-07-29T05:46:15;16.60;99.90
11583;DHT22;34299;50.820;4.548;2023-07-29T05:48:42;16.70;99.90
11583;DHT22;34299;50.820;4.548;2023-07-29T05:51:09;16.60;99.90
11583;DHT22;34299;50.820;4.548;2023-07-29T05:53:36;16.60;99.90
11583;DHT22;34299;50.820;4.548;2023-07-29T05:56:03;16.60;99.90
11583;DHT22;34299;50.820;4.548;2023-07-29T05:58:31;16.80;99.90
11583;DHT22;34299;50.820;4.548;2023-07-29T06:00:59;16.80;99.90
11583;DHT22;34299;50.820;4.548;2023-07-29T06:03:26;16.90;99.90
11583;DHT22;34299;50.820;4.548;2023-07-29T06:05:54;17.00;99.90
11583;DHT22;34299;50.820;4.548;2023-07-29T06:08:21;17.10;99.90
11583;DHT22;34299;50.820;4.548;2023-07-29T06:10:48;17.20;99.90
11583;DHT22;34299;50.820;4.548;2023-07-29T06:13:15;17.30;99.90
11583;DHT22;34299;50.820;4.548;2023-07-29T06:15:43;17.30;99.90
11583;DHT22;34299;50.820;4.548;2023-07-29T06:18:10;17.40;99.90
11583;DHT22;34299;50.820;4.548;2023-07-29T06:20:37;17.50;99.90
11583;DHT22;34299;50.820;4.548;2023-07-29T06:23:04;17.70;99.90
11583;DHT22;34299;50.820;4.548;2023-07-29T06:25:31;17.80;99.90
11583;DHT22;34299;50.820;4.548;2023-07-29T06:27:58;17.80;99.90
11583;DHT22;34299;50.820;4.548;2023-07-29T06:30:25;17.90;99.90
11583;DHT22;34299;50.820;4.548;2023-07-29T06:32:53;18.10;99.90
11583;DHT22;34299;50.820;4.548;2023-07-29T06:35:20;18.20;99.90
11583;DHT22;34299;50.820;4.548;2023-07-29T06:37:47;18.40;99.90
11583;DHT22;34299;50.820;4.548;2023-07-29T06:40:14;18.40;99.90
11583;DHT22;34299;50.820;4.548;2023-07-29T06:42:41;18.60;99.90
11583;DHT22;34299;50.820;4.548;2023-07-29T06:45:08;18.80;99.90
11583;DHT22;34299;50.820;4.548;2023-07-29T06:47:35;19.00;99.90
11583;DHT22;34299;50.820;4.548;2023-07-29T06:50:04;19.10;99.90
11583;DHT22;34299;50.820;4.548;2023-07-29T06:52:31;19.20;99.90
11583;DHT22;34299;50.820;4.548;2023-07-29T06:54:58;19.30;99.90
11583;DHT22;34299;50.820;4.548;2023-07-29T06:57:25;19.40;99.90
11583;DHT22;34299;50.820;4.548;2023-07-29T06:59:52;19.40;99.90
11583;DHT22;34299;50.820;4.548;2023-07-29T07:02:19;19.40;99.90
11583;DHT22;34299;50.820;4.548;2023-07-29T07:04:46;19.40;99.90
11583;DHT22;34299;50.820;4.548;2023-07-29T07:07:15;19.60;99.90
11583;DHT22;34299;50.820;4.548;2023-07-29T07:09:42;19.60;99.90
11583;DHT22;34299;50.820;4.548;2023-07-29T07:12:09;19.50;99.90
11583;DHT22;34299;50.820;4.548;2023-07-29T07:14:36;19.40;99.90
11583;DHT22;34299;50.820;4.548;2023-07-29T07:17:04;19.40;99.90
11583;DHT22;34299;50.820;4.548;2023-07-29T07:19:31;19.30;99.90
11583;DHT22;34299;50.820;4.548;2023-07-29T07:21:58;19.40;99.90
11583;DHT22;34299;50.820;4.548;2023-07-29T07:24:26;19.40;99.90
11583;DHT22;34299;50.820;4.548;2023-07-29T07:26:53;19.50;99.90
11583;DHT22;34299;50.820;4.548;2023-07-29T07:29:20;20.00;99.90
11583;DHT22;34299;50.820;4.548;2023-07-29T07:31:50;19.70;99.90
11583;DHT22;34299;50.820;4.548;2023-07-29T07:34:18;19.50;99.90
11583;DHT22;34299;50.820;4.548;2023-07-29T07:36:45;19.50;99.90
11583;DHT22;34299;50.820;4.548;2023-07-29T07:39:12;19.60;99.90
11583;DHT22;34299;50.820;4.548;2023-07-29T07:41:41;19.50;99.90
11583;DHT22;34299;50.820;4.548;2023-07-29T07:44:08;19.50;99.90
11583;DHT22;34299;50.820;4.548;2023-07-29T07:46:36;19.50;99.90
11583;DHT22;34299;50.820;4.548;2023-07-29T07:49:03;19.60;99.90
11583;DHT22;34299;50.820;4.548;2023-07-29T07:51:30;19.60;99.90
11583;DHT22;34299;50.820;4.548;2023-07-29T07:53:57;19.70;99.90
11583;DHT22;34299;50.820;4.548;2023-07-29T07:56:24;19.90;99.90
11583;DHT22;34299;50.820;4.548;2023-07-29T07:58:52;20.00;99.90
11583;DHT22;34299;50.820;4.548;2023-07-29T08:01:19;20.10;99.90
11583;DHT22;34299;50.820;4.548;2023-07-29T08:03:46;20.40;99.90
11583;DHT22;34299;50.820;4.548;2023-07-29T08:06:13;20.40;99.90
11583;DHT22;34299;50.820;4.548;2023-07-29T08:08:40;20.40;99.90
11583;DHT22;34299;50.820;4.548;2023-07-29T08:11:07;20.40;99.90
11583;DHT22;34299;50.820;4.548;2023-07-29T08:13:34;20.40;99.90
11583;DHT22;34299;50.820;4.548;2023-07-29T08:16:02;20.40;99.90
11583;DHT22;34299;50.820;4.548;2023-07-29T08:18:29;20.50;99.90
11583;DHT22;34299;50.820;4.548;2023-07-29T08:20:57;20.60;99.90
11583;DHT22;34299;50.820;4.548;2023-07-29T08:23:25;20.60;99.90
11583;DHT22;34299;50.820;4.548;2023-07-29T08:25:57;20.70;99.90
11583;DHT22;34299;50.820;4.548;2023-07-29T08:28:27;21.00;99.90
11583;DHT22;34299;50.820;4.548;2023-07-29T08:30:55;21.10;99.90
11583;DHT22;34299;50.820;4.548;2023-07-29T08:33:23;21.10;99.90
11583;DHT22;34299;50.820;4.548;2023-07-29T08:35:50;21.20;99.90
11583;DHT22;34299;50.820;4.548;2023-07-29T08:38:17;21.20;99.90
11583;DHT22;34299;50.820;4.548;2023-07-29T08:40:51;21.20;99.90
11583;DHT22;34299;50.820;4.548;2023-07-29T08:43:20;21.20;99.90
11583;DHT22;34299;50.820;4.548;2023-07-29T08:45:49;21.00;99.90
11583;DHT22;34299;50.820;4.548;2023-07-29T08:48:21;21.10;99.90
11583;DHT22;34299;50.820;4.548;2023-07-29T08:50:52;21.00;99.90
11583;DHT22;34299;50.820;4.548;2023-07-29T08:53:20;21.00;99.90
11583;DHT22;34299;50.820;4.548;2023-07-29T08:55:48;21.20;99.90
11583;DHT22;34299;50.820;4.548;2023-07-29T08:58:16;21.30;99.90
11583;DHT22;34299;50.820;4.548;2023-07-29T09:00:43;21.20;99.90
11583;DHT22;34299;50.820;4.548;2023-07-29T09:03:10;21.20;99.90
11583;DHT22;34299;50.820;4.548;2023-07-29T09:05:38;21.20;99.90
11583;DHT22;34299;50.820;4.548;2023-07-29T09:08:07;21.50;99.90
11583;DHT22;34299;50.820;4.548;2023-07-29T09:10:36;21.60;99.90
11583;DHT22;34299;50.820;4.548;2023-07-29T09:13:03;21.80;99.90
11583;DHT22;34299;50.820;4.548;2023-07-29T09:15:30;21.90;99.90
11583;DHT22;34299;50.820;4.548;2023-07-29T09:17:58;21.90;99.90
11583;DHT22;34299;50.820;4.548;2023-07-29T09:20:25;22.00;99.90
11583;DHT22;34299;50.820;4.548;2023-07-29T09:22:54;22.30;99.90
11583;DHT22;34299;50.820;4.548;2023-07-29T09:25:26;22.30;99.90
11583;DHT22;34299;50.820;4.548;2023-07-29T09:27:58;22.30;99.90
11583;DHT22;34299;50.820;4.548;2023-07-29T09:30:26;22.30;99.90
11583;DHT22;34299;50.820;4.548;2023-07-29T09:32:55;22.40;99.90
11583;DHT22;34299;50.820;4.548;2023-07-29T09:35:22;22.50;99.90
11583;DHT22;34299;50.820;4.548;2023-07-29T09:37:50;22.50;99.90
11583;DHT22;34299;50.820;4.548;2023-07-29T09:40:18;22.60;99.90
11583;DHT22;34299;50.820;4.548;2023-07-29T09:42:49;22.70;99.90
11583;DHT22;34299;50.820;4.548;2023-07-29T09:45:21;22.80;99.90
11583;DHT22;34299;50.820;4.548;2023-07-29T09:47:48;22.80;99.90
11583;DHT22;34299;50.820;4.548;2023-07-29T09:50:16;23.00;99.90
11583;DHT22;34299;50.820;4.548;2023-07-29T09:52:43;22.80;99.90
11583;DHT22;34299;50.820;4.548;2023-07-29T09:55:12;22.80;99.90
11583;DHT22;34299;50.820;4.548;2023-07-29T09:57:40;22.90;99.90
11583;DHT22;34299;50.820;4.548;2023-07-29T10:00:11;22.90;99.90
11583;DHT22;34299;50.820;4.548;2023-07-29T10:02:39;23.10;99.90
11583;DHT22;34299;50.820;4.548;2023-07-29T10:05:07;23.20;99.90
11583;DHT22;34299;50.820;4.548;2023-07-29T10:07:36;23.30;99.90
11583;DHT22;34299;50.820;4.548;2023-07-29T10:10:05;23.20;99.90
11583;DHT22;34299;50.820;4.548;2023-07-29T10:12:32;23.10;99.90
11583;DHT22;34299;50.820;4.548;2023-07-29T10:15:01;22.70;99.90
11583;DHT22;34299;50.820;4.548;2023-07-29T10:17:30;22.40;99.90
11583;DHT22;34299;50.820;4.548;2023-07-29T10:20:00;22.20;99.90
11583;DHT22;34299;50.820;4.548;2023-07-29T10:22:31;21.80;99.90
11583;DHT22;34299;50.820;4.548;2023-07-29T10:25:03;21.80;99.90
11583;DHT22;34299;50.820;4.548;2023-07-29T10:27:38;21.70;99.90
11583;DHT22;34299;50.820;4.548;2023-07-29T10:30:08;21.10;99.90
11583;DHT22;34299;50.820;4.548;2023-07-29T10:32:37;19.80;99.90
11583;DHT22;34299;50.820;4.548;2023-07-29T10:35:05;19.00;99.90
11583;DHT22;34299;50.820;4.548;2023-07-29T10:37:33;18.60;99.90
11583;DHT22;34299;50.820;4.548;2023-07-29T10:40:00;18.60;99.90
11583;DHT22;34299;50.820;4.548;2023-07-29T10:42:27;18.60;99.90
11583;DHT22;34299;50.820;4.548;2023-07-29T10:44:54;18.80;99.90
11583;DHT22;34299;50.820;4.548;2023-07-29T10:47:23;19.00;99.90
11583;DHT22;34299;50.820;4.548;2023-07-29T10:49:53;19.20;99.90
11583;DHT22;34299;50.820;4.548;2023-07-29T10:52:46;19.70;99.90
11583;DHT22;34299;50.820;4.548;2023-07-29T10:55:26;20.30;99.90
11583;DHT22;34299;50.820;4.548;2023-07-29T10:58:12;20.20;99.90
11583;DHT22;34299;50.820;4.548;2023-07-29T11:00:41;19.90;99.90
11583;DHT22;34299;50.820;4.548;2023-07-29T11:03:08;19.70;99.90
11583;DHT22;34299;50.820;4.548;2023-07-29T11:05:47;19.60;99.90
11583;DHT22;34299;50.820;4.548;2023-07-29T11:08:20;19.60;99.90
11583;DHT22;34299;50.820;4.548;2023-07-29T11:11:02;19.60;99.90
11583;DHT22;34299;50.820;4.548;2023-07-29T11:13:29;19.70;99.90
11583;DHT22;34299;50.820;4.548;2023-07-29T11:15:57;19.80;99.90
11583;DHT22;34299;50.820;4.548;2023-07-29T11:18:27;19.90;99.90
11583;DHT22;34299;50.820;4.548;2023-07-29T11:20:57;20.10;99.90
11583;DHT22;34299;50.820;4.548;2023-07-29T11:23:28;20.20;99.90
11583;DHT22;34299;50.820;4.548;2023-07-29T11:25:56;20.00;99.90
11583;DHT22;34299;50.820;4.548;2023-07-29T11:28:24;20.10;99.90
11583;DHT22;34299;50.820;4.548;2023-07-29T11:30:51;20.40;99.90
11583;DHT22;34299;50.820;4.548;2023-07-29T11:33:20;20.70;99.90
11583;DHT22;34299;50.820;4.548;2023-07-29T11:35:47;20.90;99.90
11583;DHT22;34299;50.820;4.548;2023-07-29T11:38:20;21.10;99.90
11583;DHT22;34299;50.820;4.548;2023-07-29T11:40:57;21.40;99.90
11583;DHT22;34299;50.820;4.548;2023-07-29T11:43:24;21.50;99.90
11583;DHT22;34299;50.820;4.548;2023-07-29T11:45:52;21.30;99.90
11583;DHT22;34299;50.820;4.548;2023-07-29T11:48:27;21.20;99.90
11583;DHT22;34299;50.820;4.548;2023-07-29T11:50:54;20.80;99.90
11583;DHT22;34299;50.820;4.548;2023-07-29T11:53:25;20.90;99.90
11583;DHT22;34299;50.820;4.548;2023-07-29T11:55:52;21.00;99.90
11583;DHT22;34299;50.820;4.548;2023-07-29T11:58:20;21.60;99.90
11583;DHT22;34299;50.820;4.548;2023-07-29T12:00:47;21.90;99.90
11583;DHT22;34299;50.820;4.548;2023-07-29T12:03:15;22.10;99.90
11583;DHT22;34299;50.820;4.548;2023-07-29T12:05:43;22.30;99.90
11583;DHT22;34299;50.820;4.548;2023-07-29T12:08:10;22.20;99.90
11583;DHT22;34299;50.820;4.548;2023-07-29T12:10:39;22.10;99.90
11583;DHT22;34299;50.820;4.548;2023-07-29T12:13:07;21.80;99.90
11583;DHT22;34299;50.820;4.548;2023-07-29T12:15:34;21.80;99.90
11583;DHT22;34299;50.820;4.548;2023-07-29T12:18:04;22.30;99.90
11583;DHT22;34299;50.820;4.548;2023-07-29T12:20:31;22.10;99.90
11583;DHT22;34299;50.820;4.548;2023-07-29T12:22:59;21.80;99.90
11583;DHT22;34299;50.820;4.548;2023-07-29T12:25:28;22.00;99.90
11583;DHT22;34299;50.820;4.548;2023-07-29T12:28:02;22.00;99.90
11583;DHT22;34299;50.820;4.548;2023-07-29T12:30:29;22.00;99.90
11583;DHT22;34299;50.820;4.548;2023-07-29T12:32:56;21.90;99.90
11583;DHT22;34299;50.820;4.548;2023-07-29T12:35:22;21.50;99.90
11583;DHT22;34299;50.820;4.548;2023-07-29T12:37:58;21.20;99.90
11583;DHT22;34299;50.820;4.548;2023-07-29T12:40:25;21.20;99.90
11583;DHT22;34299;50.820;4.548;2023-07-29T12:42:53;20.90;99.90
11583;DHT22;34299;50.820;4.548;2023-07-29T12:45:22;20.70;99.90
11583;DHT22;34299;50.820;4.548;2023-07-29T12:47:52;20.40;99.90
11583;DHT22;34299;50.820;4.548;2023-07-29T12:50:19;20.20;99.90
11583;DHT22;34299;50.820;4.548;2023-07-29T12:52:46;20.40;99.90
11583;DHT22;34299;50.820;4.548;2023-07-29T12:55:13;20.90;99.90
11583;DHT22;34299;50.820;4.548;2023-07-29T12:57:41;21.70;99.90
11583;DHT22;34299;50.820;4.548;2023-07-29T13:00:10;22.30;99.90
11583;DHT22;34299;50.820;4.548;2023-07-29T13:02:39;22.70;99.90
11583;DHT22;34299;50.820;4.548;2023-07-29T13:05:06;23.00;99.90
11583;DHT22;34299;50.820;4.548;2023-07-29T13:07:33;23.30;99.90
11583;DHT22;34299;50.820;4.548;2023-07-29T13:10:00;23.30;99.90
11583;DHT22;34299;50.820;4.548;2023-07-29T13:12:27;23.30;99.90
11583;DHT22;34299;50.820;4.548;2023-07-29T13:14:54;23.40;99.90
11583;DHT22;34299;50.820;4.548;2023-07-29T13:17:21;23.50;99.90
11583;DHT22;34299;50.820;4.548;2023-07-29T13:19:50;23.60;99.90
11583;DHT22;34299;50.820;4.548;2023-07-29T13:22:17;23.50;99.90
11583;DHT22;34299;50.820;4.548;2023-07-29T13:24:43;23.60;99.90
11583;DHT22;34299;50.820;4.548;2023-07-29T13:27:13;24.00;99.90
11583;DHT22;34299;50.820;4.548;2023-07-29T13:29:39;24.30;99.90
11583;DHT22;34299;50.820;4.548;2023-07-29T13:32:07;24.20;99.90
11583;DHT22;34299;50.820;4.548;2023-07-29T13:34:34;24.50;99.90
11583;DHT22;34299;50.820;4.548;2023-07-29T13:37:03;24.50;99.90
11583;DHT22;34299;50.820;4.548;2023-07-29T13:39:31;24.20;99.90
11583;DHT22;34299;50.820;4.548;2023-07-29T13:41:57;24.00;99.90
11583;DHT22;34299;50.820;4.548;2023-07-29T13:44:24;23.80;99.90
11583;DHT22;34299;50.820;4.548;2023-07-29T13:46:51;23.60;99.90
11583;DHT22;34299;50.820;4.548;2023-07-29T13:49:18;23.60;99.90
11583;DHT22;34299;50.820;4.548;2023-07-29T13:51:45;23.60;99.90
11583;DHT22;34299;50.820;4.548;2023-07-29T13:54:13;24.40;99.90
11583;DHT22;34299;50.820;4.548;2023-07-29T13:56:40;24.50;99.90
11583;DHT22;34299;50.820;4.548;2023-07-29T13:59:07;25.10;99.90
11583;DHT22;34299;50.820;4.548;2023-07-29T14:01:34;25.20;99.90
11583;DHT22;34299;50.820;4.548;2023-07-29T14:04:01;25.30;99.90
11583;DHT22;34299;50.820;4.548;2023-07-29T14:06:29;24.60;99.90
11583;DHT22;34299;50.820;4.548;2023-07-29T14:08:56;24.30;99.90
11583;DHT22;34299;50.820;4.548;2023-07-29T14:11:24;24.00;99.90
11583;DHT22;34299;50.820;4.548;2023-07-29T14:13:51;24.30;99.90
11583;DHT22;34299;50.820;4.548;2023-07-29T14:16:18;24.50;99.90
11583;DHT22;34299;50.820;4.548;2023-07-29T14:18:45;24.70;99.90
11583;DHT22;34299;50.820;4.548;2023-07-29T14:21:12;24.80;99.90
11583;DHT22;34299;50.820;4.548;2023-07-29T14:23:39;25.20;99.90
11583;DHT22;34299;50.820;4.548;2023-07-29T14:26:06;25.30;99.90
11583;DHT22;34299;50.820;4.548;2023-07-29T14:28:36;24.70;99.90
11583;DHT22;34299;50.820;4.548;2023-07-29T14:31:03;24.30;99.90
11583;DHT22;34299;50.820;4.548;2023-07-29T14:33:30;24.20;99.90
11583;DHT22;34299;50.820;4.548;2023-07-29T14:35:57;24.00;99.90
11583;DHT22;34299;50.820;4.548;2023-07-29T14:38:24;24.70;99.90
11583;DHT22;34299;50.820;4.548;2023-07-29T14:40:52;24.90;99.90
11583;DHT22;34299;50.820;4.548;2023-07-29T14:43:20;24.90;99.90
11583;DHT22;34299;50.820;4.548;2023-07-29T14:45:49;24.80;99.90
11583;DHT22;34299;50.820;4.548;2023-07-29T14:48:16;24.70;99.90
11583;DHT22;34299;50.820;4.548;2023-07-29T14:50:43;24.70;99.90
11583;DHT22;34299;50.820;4.548;2023-07-29T14:53:10;25.00;99.90
11583;DHT22;34299;50.820;4.548;2023-07-29T14:55:37;25.40;99.90
11583;DHT22;34299;50.820;4.548;2023-07-29T14:58:04;26.20;99.90
11583;DHT22;34299;50.820;4.548;2023-07-29T15:00:31;26.70;99.90
11583;DHT22;34299;50.820;4.548;2023-07-29T15:03:00;27.10;99.90
11583;DHT22;34299;50.820;4.548;2023-07-29T15:05:27;27.30;99.90
11583;DHT22;34299;50.820;4.548;2023-07-29T15:07:54;27.80;99.90
11583;DHT22;34299;50.820;4.548;2023-07-29T15:10:21;27.70;99.90
11583;DHT22;34299;50.820;4.548;2023-07-29T15:12:48;27.80;99.90
11583;DHT22;34299;50.820;4.548;2023-07-29T15:15:15;28.20;99.90
11583;DHT22;34299;50.820;4.548;2023-07-29T15:17:41;28.00;99.90
11583;DHT22;34299;50.820;4.548;2023-07-29T15:20:11;27.20;99.90
11583;DHT22;34299;50.820;4.548;2023-07-29T15:22:38;26.70;99.90
11583;DHT22;34299;50.820;4.548;2023-07-29T15:25:05;26.40;99.90
11583;DHT22;34299;50.820;4.548;2023-07-29T15:27:32;25.90;99.90
11583;DHT22;34299;50.820;4.548;2023-07-29T15:29:59;25.50;99.90
11583;DHT22;34299;50.820;4.548;2023-07-29T15:32:26;25.10;99.90
11583;DHT22;34299;50.820;4.548;2023-07-29T15:34:53;24.80;99.90